createdAt,value
2019-06-10T00:01:11.415Z,101750.91
2019-06-10T00:03:16.666Z,101749.28
2019-06-10T00:05:23.133Z,101741.45
2019-06-10T00:07:31.465Z,101741.67
2019-06-10T00:09:37.190Z,101737.22
2019-06-10T00:11:43.451Z,101736.52
2019-06-10T00:13:50.728Z,101737.48
2019-06-10T00:15:57.310Z,101737.16
2019-06-10T00:18:26.909Z,101732.05
2019-06-10T00:20:12.692Z,101732.05
2019-06-10T00:22:21.396Z,101733.14
2019-06-10T00:24:32.184Z,101737.08
2019-06-10T00:26:41.326Z,101731.98
2019-06-10T00:28:47.355Z,101720.78
2019-06-10T00:30:53.494Z,101735.11
2019-06-10T00:33:01.196Z,101722.03
2019-06-10T00:35:10.122Z,101726.73
2019-06-10T00:37:21.185Z,101727.50
2019-06-10T00:39:27.151Z,101721.63
2019-06-10T00:41:33.308Z,101725.16
2019-06-10T00:43:41.244Z,101719.90
2019-06-10T00:45:47.584Z,101722.80
2019-06-10T00:48:08.589Z,101724.81
2019-06-10T00:50:03.886Z,101717.70
2019-06-10T00:52:13.540Z,101718.72
2019-06-10T00:54:18.244Z,101726.82
2019-06-10T00:56:25.762Z,101718.19
2019-06-10T00:58:32.690Z,101719.05
2019-06-10T01:00:41.220Z,101707.64
2019-06-10T01:02:47.791Z,101709.44
2019-06-10T01:04:53.949Z,101713.02
2019-06-10T01:07:00.753Z,101706.98
2019-06-10T01:09:12.728Z,101708.78
2019-06-10T01:11:25.868Z,101708.72
2019-06-10T01:13:25.658Z,101702.69
2019-06-10T01:15:31.898Z,101700.95
2019-06-10T01:17:38.065Z,101693.94
2019-06-10T01:19:44.529Z,101703.70
2019-06-10T01:21:51.306Z,101703.00
2019-06-10T01:23:57.663Z,101692.51
2019-06-10T01:26:05.615Z,101697.02
2019-06-10T01:28:16.720Z,101697.98
2019-06-10T01:30:24.572Z,101690.00
2019-06-10T01:32:28.430Z,101690.00
2019-06-10T01:34:34.715Z,101691.95
2019-06-10T01:36:41.161Z,101685.82
2019-06-10T01:38:47.214Z,101685.14
2019-06-10T01:40:53.275Z,101678.09
2019-06-10T01:43:01.069Z,101677.37
2019-06-10T01:45:09.102Z,101677.43
2019-06-10T01:47:17.586Z,101668.69
2019-06-10T01:49:23.944Z,101667.91
2019-06-10T01:51:31.687Z,101660.80
2019-06-10T01:53:38.218Z,101659.78
2019-06-10T01:55:44.469Z,101663.22
2019-06-10T01:57:51.878Z,101661.42
2019-06-10T02:00:00.907Z,101663.93
2019-06-10T02:02:26.853Z,101660.34
2019-06-10T02:04:33.074Z,101652.28
2019-06-10T02:06:40.641Z,101656.52
2019-06-10T02:08:48.261Z,101658.31
2019-06-10T02:10:55.242Z,101657.53
2019-06-10T02:13:01.488Z,101660.20
2019-06-10T02:15:14.125Z,101650.34
2019-06-10T02:17:23.857Z,101645.95
2019-06-10T02:19:31.087Z,101655.90
2019-06-10T02:21:37.740Z,101647.12
2019-06-10T02:23:43.949Z,101648.14
2019-06-10T02:25:51.261Z,101644.77
2019-06-10T02:27:57.693Z,101646.41
2019-06-10T02:30:14.895Z,101651.00
2019-06-10T02:32:18.593Z,101650.17
2019-06-10T02:34:26.836Z,101650.17
2019-06-10T02:36:35.475Z,101651.00
2019-06-10T02:38:39.691Z,101643.69
2019-06-10T02:40:44.798Z,101645.42
2019-06-10T02:42:53.941Z,101641.80
2019-06-10T02:45:03.781Z,101634.63
2019-06-10T02:47:09.515Z,101631.02
2019-06-10T02:49:29.960Z,101634.33
2019-06-10T02:51:30.204Z,101629.72
2019-06-10T02:53:35.711Z,101630.48
2019-06-10T02:55:43.209Z,101632.12
2019-06-10T02:57:47.558Z,101629.31
2019-06-10T02:59:54.578Z,101639.02
2019-06-10T03:02:03.066Z,101640.75
2019-06-10T03:04:09.214Z,101638.09
2019-06-10T03:06:17.900Z,101642.45
2019-06-10T03:08:28.676Z,101629.31
2019-06-10T03:10:36.689Z,101628.70
2019-06-10T03:12:39.056Z,101637.60
2019-06-10T03:14:45.227Z,101633.21
2019-06-10T03:16:53.023Z,101622.88
2019-06-10T03:18:59.172Z,101618.69
2019-06-10T03:21:05.320Z,101616.80
2019-06-10T03:23:12.128Z,101609.59
2019-06-10T03:25:18.394Z,101615.56
2019-06-10T03:27:26.564Z,101607.12
2019-06-10T03:29:37.948Z,101601.02
2019-06-10T03:31:47.972Z,101606.58
2019-06-10T03:33:54.440Z,101598.86
2019-06-10T03:36:03.151Z,101600.02
2019-06-10T03:38:08.927Z,101600.33
2019-06-10T03:40:16.423Z,101597.44
2019-06-10T03:42:23.682Z,101594.82
2019-06-10T03:44:33.066Z,101593.12
2019-06-10T03:46:38.986Z,101583.11
2019-06-10T03:48:45.251Z,101583.88
2019-06-10T03:50:52.443Z,101575.84
2019-06-10T03:53:01.273Z,101575.23
2019-06-10T03:55:12.271Z,101578.59
2019-06-10T03:57:19.126Z,101579.34
2019-06-10T03:59:27.591Z,101579.37
2019-06-10T04:01:33.511Z,101580.57
2019-06-10T04:03:42.445Z,101587.19
2019-06-10T04:05:48.435Z,101580.76
2019-06-10T04:07:54.595Z,101584.19
2019-06-10T04:10:02.275Z,101573.19
2019-06-10T04:12:08.746Z,101583.70
2019-06-10T04:14:15.024Z,101584.39
2019-06-10T04:16:22.696Z,101569.20
2019-06-10T04:18:29.456Z,101574.31
2019-06-10T04:20:35.839Z,101570.16
2019-06-10T04:22:44.324Z,101567.23
2019-06-10T04:24:51.959Z,101570.33
2019-06-10T04:26:58.168Z,101558.75
2019-06-10T04:29:04.451Z,101559.25
2019-06-10T04:31:12.888Z,101561.84
2019-06-10T04:33:18.524Z,101561.77
2019-06-10T04:35:27.638Z,101560.41
2019-06-10T04:37:34.150Z,101553.81
2019-06-10T04:39:42.625Z,101564.71
2019-06-10T04:41:48.272Z,101559.14
2019-06-10T04:43:54.409Z,101566.65
2019-06-10T04:48:12.520Z,101555.33
2019-06-10T04:50:27.034Z,101559.28
2019-06-10T04:52:29.646Z,101562.11
2019-06-10T04:54:36.056Z,101550.14
2019-06-10T04:56:42.771Z,101545.37
2019-06-10T04:58:49.308Z,101543.34
2019-06-10T05:00:55.478Z,101548.70
2019-06-10T05:03:02.850Z,101534.39
2019-06-10T05:05:09.435Z,101533.47
2019-06-10T05:07:15.724Z,101526.13
2019-06-10T05:09:24.400Z,101528.84
2019-06-10T05:11:30.739Z,101522.56
2019-06-10T05:13:37.661Z,101527.61
2019-06-10T05:15:44.312Z,101518.66
2019-06-10T05:17:52.558Z,101521.14
2019-06-10T05:19:58.367Z,101518.05
2019-06-10T05:22:04.619Z,101515.28
2019-06-10T05:24:12.463Z,101507.28
2019-06-10T05:26:20.023Z,101511.48
2019-06-10T05:28:27.476Z,101511.11
2019-06-10T05:30:34.898Z,101519.41
2019-06-10T05:32:43.183Z,101517.89
2019-06-10T05:34:48.942Z,101513.13
2019-06-10T05:36:55.536Z,101509.52
2019-06-10T05:39:02.723Z,101506.34
2019-06-10T05:41:09.061Z,101505.09
2019-06-10T05:43:15.214Z,101510.94
2019-06-10T05:45:24.645Z,101511.23
2019-06-10T05:47:30.814Z,101506.95
2019-06-10T05:49:37.160Z,101506.46
2019-06-10T05:51:43.331Z,101505.69
2019-06-10T05:53:49.494Z,101496.75
2019-06-10T05:55:55.760Z,101494.05
2019-06-10T05:58:02.567Z,101491.58
2019-06-10T06:00:14.592Z,101480.63
2019-06-10T06:02:18.935Z,101490.05
2019-06-10T06:04:26.408Z,101496.53
2019-06-10T06:06:35.207Z,101480.98
2019-06-10T06:08:42.782Z,101478.03
2019-06-10T06:10:48.400Z,101473.55
2019-06-10T06:12:57.799Z,101469.84
2019-06-10T06:15:05.301Z,101477.22
2019-06-10T06:17:12.731Z,101468.72
2019-06-10T06:19:19.466Z,101478.61
2019-06-10T06:21:31.507Z,101484.91
2019-06-10T06:23:36.322Z,101485.88
2019-06-10T06:25:44.314Z,101484.73
2019-06-10T06:27:49.023Z,101476.39
2019-06-10T06:29:55.158Z,101463.76
2019-06-10T06:32:02.715Z,101473.30
2019-06-10T06:34:08.934Z,101468.69
2019-06-10T06:36:15.044Z,101459.77
2019-06-10T06:38:22.438Z,101462.86
2019-06-10T06:40:29.283Z,101454.42
2019-06-10T06:42:37.070Z,101450.16
2019-06-10T06:44:43.526Z,101451.93
2019-06-10T06:46:50.170Z,101452.55
2019-06-10T06:48:56.410Z,101445.38
2019-06-10T06:51:08.183Z,101444.78
2019-06-10T06:53:21.160Z,101438.79
2019-06-10T06:55:19.723Z,101433.53
2019-06-10T06:57:25.977Z,101426.47
2019-06-10T06:59:34.240Z,101426.22
2019-06-10T07:01:41.459Z,101419.86
2019-06-10T07:03:47.812Z,101410.95
2019-06-10T07:05:55.006Z,101415.22
2019-06-10T07:08:04.261Z,101413.54
2019-06-10T07:10:12.309Z,101404.73
2019-06-10T07:12:23.001Z,101399.47
2019-06-10T07:14:34.352Z,101397.37
2019-06-10T07:16:41.666Z,101404.22
2019-06-10T07:18:50.103Z,101401.19
2019-06-10T07:20:55.210Z,101383.84
2019-06-10T07:23:02.685Z,101384.20
2019-06-10T07:25:12.403Z,101377.61
2019-06-10T07:27:18.081Z,101387.48
2019-06-10T07:29:24.242Z,101379.78
2019-06-10T07:31:33.752Z,101376.92
2019-06-10T07:33:40.677Z,101369.30
2019-06-10T07:35:46.318Z,101375.52
2019-06-10T07:37:52.572Z,101366.89
2019-06-10T07:39:58.689Z,101365.36
2019-06-10T07:42:07.951Z,101368.65
2019-06-10T07:44:14.447Z,101353.14
2019-06-10T07:46:22.799Z,101354.87
2019-06-10T07:48:28.379Z,101352.09
2019-06-10T07:50:35.984Z,101347.41
2019-06-10T07:52:46.299Z,101332.16
2019-06-10T07:54:50.220Z,101326.98
2019-06-10T07:56:57.408Z,101326.14
2019-06-10T07:59:04.047Z,101314.66
2019-06-10T08:01:12.875Z,101325.00
2019-06-10T08:03:18.443Z,101328.70
2019-06-10T08:05:24.700Z,101321.65
2019-06-10T08:07:33.259Z,101318.23
2019-06-10T08:09:39.047Z,101315.56
2019-06-10T08:11:48.272Z,101323.58
2019-06-10T08:13:54.122Z,101321.03
2019-06-10T08:16:02.788Z,101322.45
2019-06-10T08:18:08.501Z,101316.14
2019-06-10T08:20:16.893Z,101318.90
2019-06-10T08:22:34.202Z,101315.64
2019-06-10T08:24:32.945Z,101311.06
2019-06-10T08:26:39.409Z,101315.52
2019-06-10T08:28:46.688Z,101317.92
2019-06-10T08:30:53.840Z,101308.13
2019-06-10T08:32:59.918Z,101305.42
2019-06-10T08:35:08.222Z,101302.59
2019-06-10T08:37:14.443Z,101292.08
2019-06-10T08:39:23.030Z,101299.45
2019-06-10T08:41:28.736Z,101293.66
2019-06-10T08:43:34.898Z,101286.55
2019-06-10T08:45:44.185Z,101294.90
2019-06-10T08:47:50.157Z,101287.09
2019-06-10T08:49:56.241Z,101281.87
2019-06-10T08:52:02.809Z,101283.27
2019-06-10T08:54:09.067Z,101272.94
2019-06-10T08:56:15.840Z,101282.58
2019-06-10T08:58:22.607Z,101273.91
2019-06-10T09:00:30.008Z,101278.41
2019-06-10T09:02:39.172Z,101272.72
2019-06-10T09:04:48.505Z,101257.48
2019-06-10T09:06:53.803Z,101269.01
2019-06-10T09:09:00.361Z,101266.07
2019-06-10T09:11:07.951Z,101264.47
2019-06-10T09:13:14.331Z,101255.00
2019-06-10T09:15:23.759Z,101246.64
2019-06-10T09:17:33.596Z,101253.29
2019-06-10T09:19:38.762Z,101254.40
2019-06-10T09:21:49.766Z,101237.62
2019-06-10T09:23:59.735Z,101250.39
2019-06-10T09:26:03.624Z,101238.61
2019-06-10T09:28:09.532Z,101231.84
2019-06-10T09:30:16.773Z,101229.69
2019-06-10T09:32:23.553Z,101225.75
2019-06-10T09:34:33.004Z,101228.59
2019-06-10T09:36:40.961Z,101231.92
2019-06-10T09:38:48.730Z,101242.44
2019-06-10T09:41:01.894Z,101254.13
2019-06-10T09:43:05.177Z,101228.72
2019-06-10T09:45:14.240Z,101233.43
2019-06-10T09:47:22.745Z,101241.42
2019-06-10T09:49:29.407Z,101240.66
2019-06-10T09:51:35.888Z,101232.50
2019-06-10T09:53:52.431Z,101221.14
2019-06-10T09:55:54.921Z,101228.70
2019-06-10T09:58:00.039Z,101224.48
2019-06-10T10:00:14.499Z,101221.84
2019-06-10T10:02:22.434Z,101221.11
2019-06-10T10:04:28.600Z,101214.67
2019-06-10T10:06:35.070Z,101220.25
2019-06-10T10:08:45.981Z,101205.37
2019-06-10T10:10:52.003Z,101207.36
2019-06-10T10:12:57.560Z,101213.61
2019-06-10T10:15:23.658Z,101208.45
2019-06-10T10:17:13.230Z,101209.06
2019-06-10T10:19:19.381Z,101211.52
2019-06-10T10:21:25.538Z,101206.59
2019-06-10T10:23:48.392Z,101202.00
2019-06-10T10:25:39.718Z,101195.95
2019-06-10T10:27:50.647Z,101183.73
2019-06-10T10:29:57.022Z,101184.34
2019-06-10T10:32:02.637Z,101187.97
2019-06-10T10:34:10.097Z,101188.03
2019-06-10T10:36:16.330Z,101190.22
2019-06-10T10:38:23.073Z,101179.48
2019-06-10T10:40:32.354Z,101187.80
2019-06-10T10:42:45.544Z,101175.87
2019-06-10T10:44:49.194Z,101180.06
2019-06-10T10:46:55.682Z,101188.08
2019-06-10T10:49:02.745Z,101180.60
2019-06-10T10:51:09.219Z,101172.34
2019-06-10T10:53:15.543Z,101173.02
2019-06-10T10:55:22.304Z,101173.97
2019-06-10T10:57:28.670Z,101174.56
2019-06-10T10:59:35.125Z,101168.66
2019-06-10T11:01:43.742Z,101163.52
2019-06-10T11:03:52.530Z,101156.02
2019-06-10T11:06:00.855Z,101150.95
2019-06-10T11:08:08.476Z,101148.45
2019-06-10T11:10:15.038Z,101145.22
2019-06-10T11:12:23.957Z,101150.81
2019-06-10T11:14:33.303Z,101139.71
2019-06-10T11:16:38.510Z,101126.28
2019-06-10T11:18:45.223Z,101142.13
2019-06-10T11:20:51.545Z,101135.28
2019-06-10T11:22:58.143Z,101130.34
2019-06-10T11:25:05.961Z,101119.69
2019-06-10T11:27:12.822Z,101130.66
2019-06-10T11:29:19.105Z,101126.81
2019-06-10T11:31:25.339Z,101134.60
2019-06-10T11:33:33.006Z,101123.60
2019-06-10T11:35:39.593Z,101122.50
2019-06-10T11:37:46.745Z,101108.95
2019-06-10T11:39:54.434Z,101114.23
2019-06-10T11:42:03.659Z,101119.03
2019-06-10T11:44:09.131Z,101110.53
2019-06-10T11:46:15.323Z,101113.81
2019-06-10T11:48:23.807Z,101109.55
2019-06-10T11:50:33.257Z,101112.06
2019-06-10T11:52:38.700Z,101107.50
2019-06-10T11:54:55.544Z,101107.63
2019-06-10T11:56:56.118Z,101107.17
2019-06-10T11:59:08.248Z,101101.27
2019-06-10T12:01:12.983Z,101082.39
2019-06-10T12:03:18.914Z,101094.44
2019-06-10T12:05:25.876Z,101083.58
2019-06-10T12:07:33.177Z,101082.60
2019-06-10T12:09:39.511Z,101074.97
2019-06-10T12:11:45.781Z,101076.33
2019-06-10T12:13:57.753Z,101084.98
2019-06-10T12:18:09.699Z,101072.75
2019-06-10T12:20:16.650Z,101065.74
2019-06-10T12:22:22.813Z,101066.36
2019-06-10T12:24:29.090Z,101057.81
2019-06-10T12:26:35.540Z,101065.38
2019-06-10T12:28:43.134Z,101060.83
2019-06-10T12:30:51.251Z,101054.15
2019-06-10T12:32:59.452Z,101051.42
2019-06-10T12:35:07.971Z,101043.78
2019-06-10T12:37:15.932Z,101052.07
2019-06-10T12:39:22.873Z,101061.23
2019-06-10T12:41:29.396Z,101045.59
2019-06-10T12:43:35.550Z,101049.17
2019-06-10T12:45:43.253Z,101044.19
2019-06-10T12:47:49.819Z,101044.48
2019-06-10T12:49:57.334Z,101031.14
2019-06-10T12:52:07.234Z,101038.91
2019-06-10T12:54:32.531Z,101041.25
2019-06-10T12:56:38.304Z,101036.84
2019-06-10T12:58:45.368Z,101028.59
2019-06-10T13:00:53.263Z,101037.09
2019-06-10T13:03:03.790Z,101031.15
2019-06-10T13:05:12.066Z,101017.27
2019-06-10T13:07:18.822Z,101013.88
2019-06-10T13:09:26.147Z,101009.43
2019-06-10T13:11:32.869Z,101009.73
2019-06-10T13:13:42.582Z,101005.82
2019-06-10T13:15:49.222Z,101007.66
2019-06-10T13:17:56.144Z,100998.27
2019-06-10T13:20:05.955Z,101005.23
2019-06-10T13:22:12.378Z,101002.52
2019-06-10T13:24:19.148Z,100998.27
2019-06-10T13:26:25.419Z,100997.73
2019-06-10T13:28:32.492Z,100987.54
2019-06-10T13:30:42.627Z,100987.14
2019-06-10T13:32:48.002Z,100986.23
2019-06-10T13:34:54.357Z,100979.87
2019-06-10T13:37:03.464Z,100976.97
2019-06-10T13:39:10.741Z,100971.64
2019-06-10T13:41:18.465Z,100973.34
2019-06-10T13:43:24.715Z,100974.73
2019-06-10T13:45:33.256Z,100975.45
2019-06-10T13:47:39.492Z,100975.37
2019-06-10T13:49:46.138Z,100962.30
2019-06-10T13:51:53.568Z,100956.69
2019-06-10T13:54:01.179Z,100956.91
2019-06-10T13:56:32.354Z,100947.27
2019-06-10T13:58:15.439Z,100960.05
2019-06-10T14:00:24.177Z,100952.95
2019-06-10T14:02:32.345Z,100946.91
2019-06-10T14:04:38.467Z,100946.75
2019-06-10T14:06:49.795Z,100950.74
2019-06-10T14:08:54.886Z,100943.81
2019-06-10T14:11:03.388Z,100944.44
2019-06-10T14:13:10.863Z,100954.44
2019-06-10T14:15:17.471Z,100947.50
2019-06-10T14:17:24.333Z,100938.35
2019-06-10T14:19:32.484Z,100932.37
2019-06-10T14:21:38.454Z,100933.31
2019-06-10T14:23:44.768Z,100932.66
2019-06-10T14:25:52.641Z,100935.10
2019-06-10T14:27:59.021Z,100927.32
2019-06-10T14:30:13.547Z,100928.73
2019-06-10T14:32:18.305Z,100926.28
2019-06-10T14:34:24.886Z,100933.17
2019-06-10T14:36:32.539Z,100929.80
2019-06-10T14:38:38.831Z,100930.25
2019-06-10T14:40:45.305Z,100923.27
2019-06-10T14:42:52.467Z,100917.03
2019-06-10T14:44:59.336Z,100911.37
2019-06-10T14:47:06.607Z,100904.34
2019-06-10T14:49:14.594Z,100899.74
2019-06-10T14:51:24.986Z,100902.83
2019-06-10T14:53:33.792Z,100896.55
2019-06-10T14:55:39.241Z,100895.83
2019-06-10T14:57:45.498Z,100890.28
2019-06-10T14:59:53.204Z,100881.37
2019-06-10T15:01:59.963Z,100872.69
2019-06-10T15:04:07.940Z,100878.20
2019-06-10T15:06:15.660Z,100865.64
2019-06-10T15:08:23.127Z,100863.16
2019-06-10T15:10:32.148Z,100860.61
2019-06-10T15:12:37.746Z,100851.03
2019-06-10T15:14:43.870Z,100847.03
2019-06-10T15:16:53.343Z,100847.57
2019-06-10T15:19:11.906Z,100841.39
2019-06-10T15:21:08.676Z,100841.13
2019-06-10T15:23:17.360Z,100844.28
2019-06-10T15:25:27.946Z,100836.93
2019-06-10T15:27:33.857Z,100839.34
2019-06-10T15:29:39.088Z,100834.75
2019-06-10T15:31:45.325Z,100835.47
2019-06-10T15:33:52.842Z,100828.92
2019-06-10T15:35:59.295Z,100823.89
2019-06-10T15:38:05.558Z,100826.13
2019-06-10T15:40:16.668Z,100828.08
2019-06-10T15:42:22.598Z,100820.05
2019-06-10T15:44:47.659Z,100814.92
2019-06-10T15:46:37.296Z,100824.95
2019-06-10T15:48:43.853Z,100818.84
2019-06-10T15:50:50.230Z,100809.73
2019-06-10T15:52:56.549Z,100811.11
2019-06-10T15:55:04.188Z,100806.52
2019-06-10T15:57:26.568Z,100803.20
2019-06-10T15:59:19.744Z,100799.05
2019-06-10T16:01:27.332Z,100800.86
2019-06-10T16:03:34.950Z,100804.73
2019-06-10T16:05:44.480Z,100791.49
2019-06-10T16:07:52.854Z,100790.30
2019-06-10T16:09:58.920Z,100781.12
2019-06-10T16:12:05.829Z,100785.59
2019-06-10T16:14:12.551Z,100775.56
2019-06-10T16:16:21.048Z,100782.02
2019-06-10T16:18:28.213Z,100783.59
2019-06-10T16:20:34.840Z,100783.63
2019-06-10T16:22:42.809Z,100782.78
2019-06-10T16:24:49.219Z,100783.75
2019-06-10T16:26:55.589Z,100768.89
2019-06-10T16:29:02.725Z,100777.24
2019-06-10T16:31:09.321Z,100763.54
2019-06-10T16:33:16.547Z,100767.73
2019-06-10T16:35:26.913Z,100761.45
2019-06-10T16:37:34.903Z,100758.33
2019-06-10T16:39:43.122Z,100765.57
2019-06-10T16:41:52.186Z,100765.95
2019-06-10T16:43:59.805Z,100770.86
2019-06-10T16:46:07.222Z,100764.89
2019-06-10T16:48:15.164Z,100766.45
2019-06-10T16:50:24.333Z,100767.00
2019-06-10T16:52:30.430Z,100758.55
2019-06-10T16:54:37.350Z,100768.08
2019-06-10T16:56:43.960Z,100761.41
2019-06-10T16:58:52.303Z,100760.44
2019-06-10T17:00:59.233Z,100760.88
2019-06-10T17:03:06.439Z,100771.38
2019-06-10T17:05:13.532Z,100770.41
2019-06-10T17:07:20.543Z,100756.66
2019-06-10T17:09:29.184Z,100757.18
2019-06-10T17:11:36.673Z,100764.30
2019-06-10T17:13:43.213Z,100755.67
2019-06-10T17:15:49.682Z,100752.96
2019-06-10T17:17:57.492Z,100746.40
2019-06-10T17:20:05.789Z,100745.94
2019-06-10T17:22:14.736Z,100740.70
2019-06-10T17:24:25.239Z,100738.54
2019-06-10T17:26:37.403Z,100740.91
2019-06-10T17:28:42.856Z,100734.16
2019-06-10T17:30:52.886Z,100742.47
2019-06-10T17:32:59.137Z,100734.34
2019-06-10T17:35:06.867Z,100733.84
2019-06-10T17:37:13.477Z,100735.41
2019-06-10T17:39:21.258Z,100727.84
2019-06-10T17:41:30.466Z,100727.50
2019-06-10T17:43:38.326Z,100726.47
2019-06-10T17:45:46.635Z,100723.45
2019-06-10T17:47:54.445Z,100722.26
2019-06-10T17:50:02.347Z,100727.36
2019-06-10T17:52:13.054Z,100717.58
2019-06-10T17:54:25.633Z,100716.91
2019-06-10T17:56:37.599Z,100710.83
2019-06-10T17:58:53.735Z,100706.76
2019-06-10T18:00:53.417Z,100708.63
2019-06-10T18:02:59.833Z,100698.65
2019-06-10T18:05:08.416Z,100703.22
2019-06-10T18:07:15.054Z,100704.05
2019-06-10T18:09:24.104Z,100701.02
2019-06-10T18:11:32.865Z,100703.36
2019-06-10T18:13:39.717Z,100696.23
2019-06-10T18:15:46.206Z,100697.90
2019-06-10T18:17:55.958Z,100700.94
2019-06-10T18:20:03.266Z,100711.23
2019-06-10T18:22:12.620Z,100706.16
2019-06-10T18:24:21.432Z,100709.34
2019-06-10T18:26:30.967Z,100710.85
2019-06-10T18:28:57.797Z,100708.81
2019-06-10T18:30:47.864Z,100709.14
2019-06-10T18:32:54.712Z,100711.47
2019-06-10T18:35:02.912Z,100712.83
2019-06-10T18:37:09.608Z,100706.06
2019-06-10T18:39:17.619Z,100705.54
2019-06-10T18:41:24.311Z,100710.41
2019-06-10T18:43:32.605Z,100711.03
2019-06-10T18:45:40.460Z,100716.06
2019-06-10T18:47:47.199Z,100718.73
2019-06-10T18:49:55.548Z,100726.45
2019-06-10T18:52:02.444Z,100731.17
2019-06-10T18:54:08.912Z,100732.49
2019-06-10T18:56:15.473Z,100732.14
2019-06-10T18:58:23.489Z,100741.87
2019-06-10T19:00:51.536Z,100739.11
2019-06-10T19:02:41.341Z,100746.52
2019-06-10T19:04:47.968Z,100747.38
2019-06-10T19:06:54.757Z,100751.24
2019-06-10T19:09:03.255Z,100738.22
2019-06-10T19:11:12.078Z,100754.58
2019-06-10T19:13:18.983Z,100755.14
2019-06-10T19:15:25.895Z,100753.62
2019-06-10T19:17:35.296Z,100750.24
2019-06-10T19:19:43.239Z,100769.75
2019-06-10T19:22:04.634Z,100769.35
2019-06-10T19:23:58.088Z,100782.30
2019-06-10T19:26:05.271Z,100772.13
2019-06-10T19:28:12.288Z,100779.86
2019-06-10T19:30:23.150Z,100772.22
2019-06-10T19:32:31.666Z,100781.30
2019-06-10T19:34:39.969Z,100776.70
2019-06-10T19:36:46.917Z,100784.07
2019-06-10T19:38:53.518Z,100781.00
2019-06-10T19:41:02.513Z,100788.55
2019-06-10T19:43:08.467Z,100785.84
2019-06-10T19:45:15.363Z,100782.61
2019-06-10T19:47:23.485Z,100783.19
2019-06-10T19:49:32.628Z,100775.00
2019-06-10T19:51:38.921Z,100791.47
2019-06-10T19:53:45.696Z,100794.64
2019-06-10T19:55:53.327Z,100787.00
2019-06-10T19:57:59.986Z,100790.00
2019-06-10T20:00:13.222Z,100779.53
2019-06-10T20:02:22.495Z,100785.05
2019-06-10T20:04:29.647Z,100781.23
2019-06-10T20:06:38.092Z,100785.46
2019-06-10T20:08:46.235Z,100790.98
2019-06-10T20:10:53.394Z,100793.43
2019-06-10T20:13:00.118Z,100791.34
2019-06-10T20:15:13.200Z,100784.00
2019-06-10T20:17:22.604Z,100784.30
2019-06-10T20:19:28.214Z,100786.86
2019-06-10T20:21:36.008Z,100789.13
2019-06-10T20:23:45.754Z,100786.61
2019-06-10T20:25:52.690Z,100793.70
2019-06-10T20:28:02.904Z,100781.22
2019-06-10T20:30:24.359Z,100783.91
2019-06-10T20:32:23.012Z,100789.90
2019-06-10T20:34:30.291Z,100789.17
2019-06-10T20:36:37.397Z,100793.16
2019-06-10T20:38:48.225Z,100791.18
2019-06-10T20:40:54.079Z,100781.37
2019-06-10T20:43:03.205Z,100788.20
2019-06-10T20:45:13.010Z,100791.48
2019-06-10T20:47:18.821Z,100790.08
2019-06-10T20:49:25.340Z,100782.43
2019-06-10T20:51:46.014Z,100783.15
2019-06-10T20:53:42.764Z,100790.50
2019-06-10T20:55:54.198Z,100788.70
2019-06-10T20:58:03.512Z,100785.02
2019-06-10T21:00:22.136Z,100790.41
2019-06-10T21:02:22.327Z,100790.53
2019-06-10T21:04:28.447Z,100789.97
2019-06-10T21:06:39.206Z,100789.28
2019-06-10T21:08:50.877Z,100790.83
2019-06-10T21:10:56.844Z,100794.38
2019-06-10T21:13:03.718Z,100787.18
2019-06-10T21:15:12.563Z,100786.34
2019-06-10T21:17:18.918Z,100773.88
2019-06-10T21:19:25.191Z,100784.94
2019-06-10T21:21:32.655Z,100781.68
2019-06-10T21:23:40.542Z,100779.45
2019-06-10T21:25:50.291Z,100780.30
2019-06-10T21:27:54.819Z,100782.13
2019-06-10T21:30:03.068Z,100780.81
2019-06-10T21:32:08.964Z,100790.02
2019-06-10T21:34:15.125Z,100786.19
2019-06-10T21:36:22.981Z,100791.44
2019-06-10T21:38:29.381Z,100796.37
2019-06-10T21:40:35.641Z,100802.77
2019-06-10T21:42:41.797Z,100805.88
2019-06-10T21:44:48.044Z,100806.03
2019-06-10T21:46:55.354Z,100803.76
2019-06-10T21:49:01.528Z,100810.28
2019-06-10T21:51:07.774Z,100812.52
2019-06-10T21:53:14.035Z,100813.95
2019-06-10T21:55:22.298Z,100822.30
2019-06-10T21:57:28.192Z,100822.01
2019-06-10T21:59:34.446Z,100829.50
2019-06-10T22:01:42.961Z,100833.45
2019-06-10T22:03:53.201Z,100846.20
2019-06-10T22:05:58.354Z,100845.62
2019-06-10T22:08:04.517Z,100849.16
2019-06-10T22:10:12.798Z,100850.02
2019-06-10T22:12:19.273Z,100840.41
2019-06-10T22:14:25.452Z,100834.02
2019-06-10T22:16:33.638Z,100836.70
2019-06-10T22:18:39.973Z,100842.23
2019-06-10T22:20:46.736Z,100833.45
2019-06-10T22:22:54.846Z,100835.84
2019-06-10T22:25:02.923Z,100831.88
2019-06-10T22:27:09.346Z,100836.84
2019-06-10T22:29:15.686Z,100833.42
2019-06-10T22:31:23.722Z,100833.00
2019-06-10T22:33:29.990Z,100828.00
2019-06-10T22:35:36.226Z,100827.15
2019-06-10T22:37:42.805Z,100830.97
2019-06-10T22:39:50.015Z,100831.95
2019-06-10T22:41:57.035Z,100830.55
2019-06-10T22:44:04.568Z,100831.92
2019-06-10T22:46:10.761Z,100833.91
2019-06-10T22:48:16.962Z,100844.06
2019-06-10T22:50:23.647Z,100838.70
2019-06-10T22:52:32.023Z,100840.13
2019-06-10T22:54:37.625Z,100842.94
2019-06-10T22:56:43.869Z,100837.72
2019-06-10T22:58:52.689Z,100837.84
2019-06-10T23:00:58.112Z,100842.52
2019-06-10T23:03:04.296Z,100834.58
2019-06-10T23:05:13.267Z,100821.31
2019-06-10T23:07:19.400Z,100829.76
2019-06-10T23:09:26.127Z,100825.64
2019-06-10T23:11:32.407Z,100819.69
2019-06-10T23:13:38.642Z,100819.38
2019-06-10T23:15:44.802Z,100809.78
2019-06-10T23:17:53.628Z,100813.70
2019-06-10T23:19:59.791Z,100821.05
2019-06-10T23:22:06.356Z,100821.33
2019-06-10T23:24:13.459Z,100826.11
2019-06-10T23:26:22.426Z,100826.50
2019-06-10T23:28:27.902Z,100819.46
2019-06-10T23:30:35.392Z,100818.45
2019-06-10T23:32:42.335Z,100822.14
2019-06-10T23:34:49.242Z,100818.72
2019-06-10T23:36:57.099Z,100819.11
2019-06-10T23:39:04.198Z,100810.95
2019-06-10T23:41:13.025Z,100810.20
2019-06-10T23:43:19.411Z,100806.94
2019-06-10T23:45:25.558Z,100801.84
2019-06-10T23:47:32.629Z,100798.30
2019-06-10T23:49:39.102Z,100797.88
2019-06-10T23:51:45.672Z,100789.83
2019-06-10T23:53:54.425Z,100802.38
2019-06-10T23:56:00.830Z,100810.55
2019-06-10T23:58:08.238Z,100809.84
